Kennedale's Hourly Summary for Wednesday, April 19, 2017
Hour Temp
(f)
RH
(%)
Solar Rad.
(MJ/m2)
Rainfall
(in)
Wind
(mph)
4/19/2017 12:00 AM 65 94 0 0 0
4/19/2017 1:00 AM 64 95 0 0 0
4/19/2017 2:00 AM 64 97 0 0 0
4/19/2017 3:00 AM 64 97 0 0 0
4/19/2017 4:00 AM 65 97 0 0 0
4/19/2017 5:00 AM 65 98 0 0 0
4/19/2017 6:00 AM 65 98 0 0 0
4/19/2017 7:00 AM 65 97 0.05 0 0
4/19/2017 8:00 AM 66 94 0.14 0 0
4/19/2017 9:00 AM 67 90 0.38 0 0
4/19/2017 10:00 AM 68 86 0.71 0 0
4/19/2017 11:00 AM 71 76 1.35 0 0
4/19/2017 12:00 PM 73 71 1.29 0 0
4/19/2017 1:00 PM 75 67 1.7 0 0
4/19/2017 2:00 PM 78 62 2.72 0 0
4/19/2017 3:00 PM 79 56 2.45 0 0
4/19/2017 4:00 PM 80 55 2.01 0 0
4/19/2017 5:00 PM 80 58 1.59 0 0
4/19/2017 6:00 PM 79 60 0.79 0 0
4/19/2017 7:00 PM 78 62 0.27 0 0
4/19/2017 8:00 PM 75 70 0.01 0 0
4/19/2017 9:00 PM 73 75 0 0 0
4/19/2017 10:00 PM 71 79 0 0 0
4/19/2017 11:00 PM 71 83 0 0 0
Data Summary 70 79 15.46 0.00 0.00